createdAt,value
2022-10-19T00:01:20.513Z,10.78
2022-10-19T00:06:20.586Z,10.66
2022-10-19T00:08:47.321Z,10.62
2022-10-19T00:11:14.120Z,10.58
2022-10-19T00:13:40.899Z,10.55
2022-10-19T00:16:11.472Z,10.49
2022-10-19T00:18:38.505Z,10.41
2022-10-19T00:21:06.810Z,10.35
2022-10-19T00:23:33.860Z,10.30
2022-10-19T00:26:01.012Z,10.21
2022-10-19T00:28:27.946Z,10.13
2022-10-19T00:30:54.677Z,10.08
2022-10-19T00:33:22.600Z,10.07
2022-10-19T00:35:51.522Z,10.07
2022-10-19T00:38:20.411Z,10.05
2022-10-19T00:40:47.674Z,10.02
2022-10-19T00:43:17.217Z,9.99
2022-10-19T00:45:43.930Z,9.99
2022-10-19T00:48:15.569Z,10.01
2022-10-19T00:50:43.627Z,10.01
2022-10-19T00:53:10.785Z,9.95
2022-10-19T00:55:39.121Z,9.92
2022-10-19T00:58:06.014Z,9.93
2022-10-19T01:00:34.185Z,9.93
2022-10-19T01:03:03.212Z,9.91
2022-10-19T01:05:31.650Z,9.88
2022-10-19T01:07:58.364Z,9.90
2022-10-19T01:10:46.252Z,9.88
2022-10-19T01:13:44.193Z,9.84
2022-10-19T01:16:49.317Z,9.82
2022-10-19T01:19:54.448Z,9.81
2022-10-19T01:22:45.310Z,9.82
2022-10-19T01:25:36.195Z,9.77
2022-10-19T01:28:17.338Z,9.73
2022-10-19T01:30:56.321Z,9.69
2022-10-19T01:33:30.549Z,9.62
2022-10-19T01:36:17.268Z,9.59
2022-10-19T01:39:02.404Z,9.61
2022-10-19T01:41:41.196Z,9.66
2022-10-19T01:44:13.644Z,9.73
2022-10-19T01:46:43.365Z,9.77
2022-10-19T01:49:33.259Z,9.85
2022-10-19T01:52:04.251Z,9.94
2022-10-19T01:54:38.472Z,10.00
2022-10-19T01:57:08.750Z,10.06
2022-10-19T01:59:37.430Z,10.12
2022-10-19T02:02:07.000Z,10.15
2022-10-19T02:04:34.806Z,10.19
2022-10-19T02:07:03.125Z,10.19
2022-10-19T02:09:30.234Z,10.22
2022-10-19T02:11:59.558Z,10.21
2022-10-19T02:14:31.998Z,10.26
2022-10-19T02:17:06.152Z,10.27
2022-10-19T02:19:32.902Z,10.30
2022-10-19T02:21:59.906Z,10.31
2022-10-19T02:24:26.571Z,10.33
2022-10-19T02:26:55.602Z,10.34
2022-10-19T02:29:22.557Z,10.34
2022-10-19T02:31:49.405Z,10.37
2022-10-19T02:34:16.138Z,10.39
2022-10-19T02:36:42.857Z,10.39
2022-10-19T02:39:09.894Z,10.41
2022-10-19T02:41:49.359Z,10.42
2022-10-19T02:44:28.872Z,10.43
2022-10-19T02:47:09.488Z,10.43
2022-10-19T02:49:37.818Z,10.41
2022-10-19T02:52:07.395Z,10.42
2022-10-19T02:54:34.394Z,10.41
2022-10-19T02:57:01.219Z,10.44
2022-10-19T02:59:27.855Z,10.44
2022-10-19T03:01:54.635Z,10.45
2022-10-19T03:04:21.271Z,10.45
2022-10-19T03:06:47.878Z,10.45
2022-10-19T03:09:14.493Z,10.45
2022-10-19T03:11:41.135Z,10.44
2022-10-19T03:14:07.851Z,10.44
2022-10-19T03:16:34.438Z,10.44
2022-10-19T03:19:00.981Z,10.41
2022-10-19T03:21:27.600Z,10.38
2022-10-19T03:23:54.675Z,10.37
2022-10-19T03:26:21.359Z,10.36
2022-10-19T03:28:47.994Z,10.34
2022-10-19T03:31:14.623Z,10.31
2022-10-19T03:33:41.221Z,10.25
2022-10-19T03:36:21.792Z,10.21
2022-10-19T03:38:52.473Z,10.15
2022-10-19T03:41:20.877Z,10.09
2022-10-19T03:43:48.170Z,10.02
2022-10-19T03:46:15.222Z,9.96
2022-10-19T03:48:41.899Z,9.88
2022-10-19T03:51:11.945Z,9.82
2022-10-19T03:53:39.182Z,9.75
2022-10-19T03:56:08.351Z,9.69
2022-10-19T03:58:36.747Z,9.67
2022-10-19T04:01:09.085Z,9.61
2022-10-19T04:06:37.590Z,9.49
2022-10-19T04:09:05.275Z,9.45
2022-10-19T04:11:33.587Z,9.43
2022-10-19T04:14:01.130Z,9.43
2022-10-19T04:16:29.835Z,9.39
2022-10-19T04:18:57.103Z,9.41
2022-10-19T04:21:26.274Z,9.41
2022-10-19T04:23:57.284Z,9.41
2022-10-19T04:26:23.957Z,9.43
2022-10-19T04:28:50.620Z,9.42
2022-10-19T04:31:17.273Z,9.44
2022-10-19T04:33:43.957Z,9.44
2022-10-19T04:36:12.282Z,9.46
2022-10-19T04:38:39.707Z,9.45
2022-10-19T04:41:10.056Z,9.47
2022-10-19T04:43:37.258Z,9.47
2022-10-19T04:46:13.214Z,9.45
2022-10-19T04:48:41.117Z,9.42
2022-10-19T04:51:08.817Z,9.39
2022-10-19T04:53:37.601Z,9.35
2022-10-19T04:56:06.551Z,9.32
2022-10-19T04:58:33.128Z,9.28
2022-10-19T05:00:59.831Z,9.21
2022-10-19T05:03:26.427Z,9.17
2022-10-19T05:05:53.408Z,9.16
2022-10-19T05:08:19.980Z,9.10
2022-10-19T05:10:47.727Z,9.08
2022-10-19T05:13:14.576Z,9.07
2022-10-19T05:15:41.754Z,9.07
2022-10-19T05:18:08.314Z,9.09
2022-10-19T05:20:35.079Z,9.10
2022-10-19T05:23:06.201Z,9.12
2022-10-19T05:25:34.168Z,9.10
2022-10-19T05:28:00.781Z,9.08
2022-10-19T05:30:27.385Z,9.08
2022-10-19T05:32:53.954Z,9.08
2022-10-19T05:35:22.711Z,9.08
2022-10-19T05:37:54.492Z,9.09
2022-10-19T05:40:21.195Z,9.10
2022-10-19T05:42:47.810Z,9.11
2022-10-19T05:45:14.447Z,9.11
2022-10-19T05:47:41.037Z,9.10
2022-10-19T05:50:07.963Z,9.12
2022-10-19T05:52:34.533Z,9.14
2022-10-19T05:55:01.123Z,9.14
2022-10-19T05:57:27.715Z,9.15
2022-10-19T05:59:56.848Z,9.14
2022-10-19T06:02:23.793Z,9.16
2022-10-19T06:04:50.754Z,9.17
2022-10-19T06:07:17.442Z,9.16
2022-10-19T06:09:44.040Z,9.18
2022-10-19T06:12:10.783Z,9.18
2022-10-19T06:14:37.451Z,9.20
2022-10-19T06:17:04.555Z,9.20
2022-10-19T06:19:31.182Z,9.20
2022-10-19T06:21:57.756Z,9.22
2022-10-19T06:24:24.407Z,9.24
2022-10-19T06:26:50.997Z,9.26
2022-10-19T06:29:17.583Z,9.29
2022-10-19T06:31:44.188Z,9.28
2022-10-19T06:34:10.833Z,9.30
2022-10-19T06:36:37.621Z,9.33
2022-10-19T06:39:04.495Z,9.31
2022-10-19T06:41:31.852Z,9.36
2022-10-19T06:43:58.462Z,9.34
2022-10-19T06:46:26.755Z,9.36
2022-10-19T06:48:58.641Z,9.38
2022-10-19T06:51:27.211Z,9.44
2022-10-19T06:53:57.088Z,9.48
2022-10-19T06:56:24.876Z,9.54
2022-10-19T06:58:51.900Z,9.63
2022-10-19T07:01:18.598Z,9.75
2022-10-19T07:03:45.376Z,9.86
2022-10-19T07:06:13.408Z,9.98
2022-10-19T07:08:42.228Z,10.11
2022-10-19T07:11:12.312Z,10.27
2022-10-19T07:13:39.653Z,10.40
2022-10-19T07:16:15.795Z,10.46
2022-10-19T07:18:47.152Z,10.50
2022-10-19T07:21:16.498Z,10.56
2022-10-19T07:23:47.524Z,10.71
2022-10-19T07:26:21.440Z,10.76
2022-10-19T07:28:49.470Z,10.93
2022-10-19T07:31:22.966Z,10.96
2022-10-19T07:33:54.090Z,11.01
2022-10-19T07:36:21.006Z,11.18
2022-10-19T07:38:47.685Z,11.12
2022-10-19T07:41:16.542Z,11.25
2022-10-19T07:43:45.639Z,11.41
2022-10-19T07:46:18.788Z,11.51
2022-10-19T07:48:46.257Z,11.53
2022-10-19T07:51:15.483Z,11.40
2022-10-19T07:53:42.853Z,11.32
2022-10-19T07:56:11.314Z,11.24
2022-10-19T07:58:38.301Z,11.25
2022-10-19T08:01:08.188Z,11.25
2022-10-19T08:06:22.572Z,11.39
2022-10-19T08:08:50.020Z,11.58
2022-10-19T08:11:22.885Z,11.66
2022-10-19T08:13:50.042Z,11.71
2022-10-19T08:16:34.509Z,11.70
2022-10-19T08:19:04.129Z,11.73
2022-10-19T08:21:31.504Z,11.78
2022-10-19T08:23:58.454Z,11.91
2022-10-19T08:26:25.625Z,11.97
2022-10-19T08:28:52.375Z,11.99
2022-10-19T08:31:22.688Z,11.86
2022-10-19T08:33:50.999Z,12.03
2022-10-19T08:36:19.860Z,12.10
2022-10-19T08:38:48.542Z,12.18
2022-10-19T08:41:41.503Z,12.25
2022-10-19T08:44:29.213Z,12.30
2022-10-19T08:47:14.743Z,12.25
2022-10-19T08:49:43.215Z,12.22
2022-10-19T08:52:34.930Z,12.31
2022-10-19T08:55:13.103Z,12.53
2022-10-19T08:58:06.897Z,13.09
2022-10-19T09:00:44.696Z,13.18
2022-10-19T09:03:37.768Z,13.05
2022-10-19T09:06:27.150Z,13.01
2022-10-19T09:08:55.866Z,12.96
2022-10-19T09:11:29.786Z,13.02
2022-10-19T09:14:15.464Z,13.33
2022-10-19T09:16:43.039Z,13.19
2022-10-19T09:19:26.313Z,13.16
2022-10-19T09:21:58.782Z,13.35
2022-10-19T09:24:36.958Z,13.43
2022-10-19T09:27:03.996Z,13.50
2022-10-19T09:29:42.448Z,13.30
2022-10-19T09:32:20.365Z,13.47
2022-10-19T09:34:53.415Z,13.72
2022-10-19T09:37:25.893Z,13.67
2022-10-19T09:39:55.133Z,13.40
2022-10-19T09:42:29.581Z,13.23
2022-10-19T09:44:58.517Z,13.20
2022-10-19T09:47:37.885Z,13.16
2022-10-19T09:50:21.225Z,13.21
2022-10-19T09:53:04.077Z,13.25
2022-10-19T09:55:41.471Z,13.23
2022-10-19T09:58:14.294Z,13.64
2022-10-19T10:00:46.857Z,13.69
2022-10-19T10:03:28.753Z,13.72
2022-10-19T10:06:04.197Z,13.79
2022-10-19T10:08:34.796Z,13.84
2022-10-19T10:11:22.527Z,13.80
2022-10-19T10:13:51.681Z,13.74
2022-10-19T10:16:22.278Z,13.64
2022-10-19T10:18:58.146Z,13.59
2022-10-19T10:21:26.220Z,13.55
2022-10-19T10:24:17.404Z,13.73
2022-10-19T10:26:45.427Z,13.91
2022-10-19T10:29:21.806Z,13.88
2022-10-19T10:31:53.718Z,13.80
2022-10-19T10:34:51.794Z,13.68
2022-10-19T10:37:23.765Z,13.55
2022-10-19T10:39:58.945Z,13.76
2022-10-19T10:42:33.554Z,14.27
2022-10-19T10:45:01.024Z,14.94
2022-10-19T10:47:29.004Z,15.40
2022-10-19T10:50:06.627Z,15.24
2022-10-19T10:52:34.056Z,14.97
2022-10-19T10:55:19.157Z,14.53
2022-10-19T10:57:52.961Z,14.11
2022-10-19T11:00:22.073Z,13.85
2022-10-19T11:03:13.079Z,13.81
2022-10-19T11:05:46.788Z,13.84
2022-10-19T11:08:21.238Z,13.78
2022-10-19T11:11:16.689Z,13.72
2022-10-19T11:13:52.958Z,13.48
2022-10-19T11:16:27.050Z,13.28
2022-10-19T11:18:58.971Z,13.19
2022-10-19T11:21:47.259Z,13.08
2022-10-19T11:24:27.478Z,13.18
2022-10-19T11:26:54.021Z,13.41
2022-10-19T11:30:03.219Z,13.33
2022-10-19T11:32:52.616Z,13.22
2022-10-19T11:35:49.769Z,12.95
2022-10-19T11:38:51.735Z,12.73
2022-10-19T11:41:30.234Z,12.62
2022-10-19T11:44:20.729Z,12.61
2022-10-19T11:47:21.451Z,12.63
2022-10-19T11:53:27.461Z,12.84
2022-10-19T11:56:03.104Z,12.93
2022-10-19T11:59:07.883Z,13.13
2022-10-19T12:01:53.134Z,13.36
2022-10-19T12:04:57.425Z,13.83
2022-10-19T12:07:56.806Z,13.63
2022-10-19T12:10:52.162Z,13.35
2022-10-19T12:13:37.412Z,12.93
2022-10-19T12:16:06.046Z,12.67
2022-10-19T12:18:43.453Z,12.50
2022-10-19T12:21:26.425Z,12.32
2022-10-19T12:23:54.429Z,12.21
2022-10-19T12:26:22.515Z,11.95
2022-10-19T12:29:02.010Z,12.06
2022-10-19T12:31:30.673Z,12.09
2022-10-19T12:34:20.760Z,12.06
2022-10-19T12:37:08.679Z,12.23
2022-10-19T12:39:40.905Z,12.13
2022-10-19T12:42:27.703Z,12.28
2022-10-19T12:45:18.958Z,12.37
2022-10-19T12:48:12.924Z,12.37
2022-10-19T12:50:48.640Z,12.32
2022-10-19T12:53:36.259Z,12.29
2022-10-19T12:56:07.737Z,12.40
2022-10-19T12:58:43.484Z,12.39
2022-10-19T13:01:19.597Z,12.33
2022-10-19T13:03:47.535Z,12.23
2022-10-19T13:06:29.828Z,12.12
2022-10-19T13:09:00.798Z,11.99
2022-10-19T13:11:27.651Z,11.87
2022-10-19T13:14:00.786Z,11.87
2022-10-19T13:16:30.105Z,11.88
2022-10-19T13:18:59.638Z,11.97
2022-10-19T13:21:51.067Z,11.99
2022-10-19T13:24:26.033Z,12.10
2022-10-19T13:27:04.832Z,12.10
2022-10-19T13:29:37.249Z,12.14
2022-10-19T13:32:43.537Z,12.15
2022-10-19T13:35:28.788Z,12.16
2022-10-19T13:38:17.259Z,12.21
2022-10-19T13:40:49.708Z,12.24
2022-10-19T13:43:25.153Z,12.17
2022-10-19T13:46:15.041Z,12.18
2022-10-19T13:49:19.195Z,12.22
2022-10-19T13:51:59.410Z,12.38
2022-10-19T13:54:56.114Z,12.38
2022-10-19T13:58:02.023Z,12.33
2022-10-19T14:00:48.854Z,12.23
2022-10-19T14:03:35.678Z,12.24
2022-10-19T14:06:28.512Z,12.29
2022-10-19T14:09:43.570Z,12.32
2022-10-19T14:12:19.004Z,12.25
2022-10-19T14:14:45.560Z,12.32
2022-10-19T14:17:21.526Z,12.41
2022-10-19T14:19:51.567Z,12.45
2022-10-19T14:22:36.270Z,12.51
2022-10-19T14:25:19.514Z,12.56
2022-10-19T14:27:47.953Z,12.36
2022-10-19T14:30:31.739Z,12.46
2022-10-19T14:33:02.301Z,12.49
2022-10-19T14:35:38.229Z,12.36
2022-10-19T14:38:09.152Z,12.34
2022-10-19T14:40:41.340Z,12.15
2022-10-19T14:43:34.680Z,12.04
2022-10-19T14:46:07.288Z,11.95
2022-10-19T14:48:35.719Z,11.91
2022-10-19T14:51:05.354Z,11.82
2022-10-19T14:53:39.934Z,11.75
2022-10-19T14:56:21.559Z,11.64
2022-10-19T14:58:53.896Z,11.58
2022-10-19T15:01:21.765Z,11.53
2022-10-19T15:03:50.062Z,11.47
2022-10-19T15:06:20.022Z,11.41
2022-10-19T15:09:12.151Z,11.30
2022-10-19T15:11:47.347Z,11.18
2022-10-19T15:14:28.327Z,11.06
2022-10-19T15:17:00.925Z,11.00
2022-10-19T15:19:35.416Z,10.95
2022-10-19T15:22:23.805Z,10.83
2022-10-19T15:25:02.298Z,10.74
2022-10-19T15:27:42.010Z,10.68
2022-10-19T15:30:17.507Z,10.66
2022-10-19T15:32:46.528Z,10.63
2022-10-19T15:35:25.118Z,10.60
2022-10-19T15:38:01.915Z,10.59
2022-10-19T15:40:35.685Z,10.58
2022-10-19T15:43:31.128Z,10.55
2022-10-19T15:46:00.901Z,10.56
2022-10-19T15:48:44.430Z,10.54
2022-10-19T15:51:29.178Z,10.52
2022-10-19T15:53:58.593Z,10.53
2022-10-19T15:56:28.262Z,10.53
2022-10-19T15:58:58.262Z,10.51
2022-10-19T16:01:31.470Z,10.52
2022-10-19T16:03:58.374Z,10.50
2022-10-19T16:06:27.857Z,10.49
2022-10-19T16:08:54.566Z,10.49
2022-10-19T16:11:23.264Z,10.47
2022-10-19T16:13:50.235Z,10.48
2022-10-19T16:16:24.829Z,10.45
2022-10-19T16:18:52.186Z,10.44
2022-10-19T16:21:21.050Z,10.41
2022-10-19T16:23:47.929Z,10.39
2022-10-19T16:26:16.632Z,10.38
2022-10-19T16:28:43.974Z,10.37
2022-10-19T16:31:10.670Z,10.37
2022-10-19T16:33:37.558Z,10.31
2022-10-19T16:36:08.607Z,10.27
2022-10-19T16:38:36.444Z,10.24
2022-10-19T16:41:04.908Z,10.24
2022-10-19T16:43:31.535Z,10.24
2022-10-19T16:45:58.103Z,10.23
2022-10-19T16:48:25.645Z,10.24
2022-10-19T16:51:07.597Z,10.23
2022-10-19T16:53:35.357Z,10.23
2022-10-19T16:56:10.285Z,10.22
2022-10-19T16:58:37.437Z,10.24
2022-10-19T17:01:08.050Z,10.24
2022-10-19T17:03:34.787Z,10.24
2022-10-19T17:06:06.018Z,10.23
2022-10-19T17:08:37.355Z,10.22
2022-10-19T17:11:20.862Z,10.17
2022-10-19T17:13:49.327Z,10.14
2022-10-19T17:16:17.626Z,10.12
2022-10-19T17:18:44.442Z,10.09
2022-10-19T17:21:16.436Z,10.07
2022-10-19T17:23:44.103Z,10.04
2022-10-19T17:26:12.168Z,10.00
2022-10-19T17:28:40.434Z,9.96
2022-10-19T17:31:10.572Z,9.93
2022-10-19T17:33:39.417Z,9.87
2022-10-19T17:36:15.366Z,9.80
2022-10-19T17:38:42.147Z,9.74
2022-10-19T17:41:11.926Z,9.66
2022-10-19T17:43:41.251Z,9.58
2022-10-19T17:46:09.879Z,9.49
2022-10-19T17:48:40.282Z,9.42
2022-10-19T17:51:10.877Z,9.36
2022-10-19T17:53:39.165Z,9.28
2022-10-19T17:56:07.707Z,9.20
2022-10-19T17:58:39.052Z,9.14
2022-10-19T18:01:07.275Z,9.03
2022-10-19T18:03:34.973Z,8.93
2022-10-19T18:06:10.902Z,8.81
2022-10-19T18:08:40.467Z,8.72
2022-10-19T18:11:11.023Z,8.62
2022-10-19T18:16:45.709Z,8.37
2022-10-19T18:19:14.594Z,8.26
2022-10-19T18:21:43.909Z,8.16
2022-10-19T18:24:19.739Z,8.08
2022-10-19T18:26:47.920Z,8.00
2022-10-19T18:29:21.047Z,7.91
2022-10-19T18:31:53.068Z,7.83
2022-10-19T18:34:23.662Z,7.73
2022-10-19T18:36:50.555Z,7.65
2022-10-19T18:39:18.009Z,7.56
2022-10-19T18:41:44.639Z,7.48
2022-10-19T18:44:13.250Z,7.40
2022-10-19T18:46:40.427Z,7.31
2022-10-19T18:49:08.661Z,7.22
2022-10-19T18:51:35.914Z,7.15
2022-10-19T18:54:02.571Z,7.09
2022-10-19T18:56:33.566Z,7.00
2022-10-19T18:59:00.202Z,6.94
2022-10-19T19:01:28.422Z,6.85
2022-10-19T19:04:04.493Z,6.76
2022-10-19T19:06:31.781Z,6.70
2022-10-19T19:09:01.166Z,6.65
2022-10-19T19:11:36.735Z,6.57
2022-10-19T19:14:12.237Z,6.47
2022-10-19T19:16:39.887Z,6.39
2022-10-19T19:19:08.688Z,6.35
2022-10-19T19:21:36.674Z,6.31
2022-10-19T19:24:05.673Z,6.26
2022-10-19T19:26:35.114Z,6.26
2022-10-19T19:29:02.670Z,6.23
2022-10-19T19:31:29.571Z,6.20
2022-10-19T19:33:56.510Z,6.16
2022-10-19T19:36:23.077Z,6.21
2022-10-19T19:38:51.876Z,6.16
2022-10-19T19:41:18.523Z,6.11
2022-10-19T19:43:45.211Z,6.03
2022-10-19T19:46:14.642Z,6.00
2022-10-19T19:48:43.395Z,5.92
2022-10-19T19:51:17.693Z,5.88
2022-10-19T19:53:45.016Z,5.88
2022-10-19T19:56:13.541Z,5.83
2022-10-19T19:58:41.223Z,5.74
2022-10-19T20:01:17.039Z,5.65
2022-10-19T20:03:43.906Z,5.63
2022-10-19T20:06:10.993Z,5.61
2022-10-19T20:08:38.295Z,5.54
2022-10-19T20:11:08.235Z,5.46
2022-10-19T20:13:35.945Z,5.41
2022-10-19T20:16:17.518Z,5.36
2022-10-19T20:18:46.177Z,5.35
2022-10-19T20:21:13.337Z,5.30
2022-10-19T20:23:40.122Z,5.25
2022-10-19T20:26:09.527Z,5.27
2022-10-19T20:28:36.170Z,5.25
2022-10-19T20:31:08.812Z,5.21
2022-10-19T20:33:37.763Z,5.16
2022-10-19T20:36:12.922Z,5.10
2022-10-19T20:38:41.786Z,5.33
2022-10-19T20:41:09.945Z,5.33
2022-10-19T20:43:39.868Z,5.19
2022-10-19T20:46:10.350Z,5.29
2022-10-19T20:48:37.983Z,5.27
2022-10-19T20:51:10.170Z,5.32
2022-10-19T20:53:36.874Z,5.16
2022-10-19T20:56:09.016Z,5.06
2022-10-19T20:58:39.238Z,4.94
2022-10-19T21:01:17.519Z,4.83
2022-10-19T21:03:56.125Z,4.77
2022-10-19T21:06:26.498Z,4.69
2022-10-19T21:08:53.512Z,4.64
2022-10-19T21:11:28.813Z,4.60
2022-10-19T21:13:57.356Z,4.54
2022-10-19T21:16:27.604Z,4.52
2022-10-19T21:18:57.331Z,4.55
2022-10-19T21:21:29.317Z,4.55
2022-10-19T21:24:02.558Z,4.52
2022-10-19T21:26:29.268Z,4.61
2022-10-19T21:28:56.129Z,4.62
2022-10-19T21:31:24.473Z,4.60
2022-10-19T21:33:51.865Z,4.60
2022-10-19T21:36:19.502Z,4.66
2022-10-19T21:38:46.098Z,4.72
2022-10-19T21:41:20.844Z,4.80
2022-10-19T21:43:50.504Z,4.87
2022-10-19T21:46:20.145Z,4.96
2022-10-19T21:48:47.461Z,4.91
2022-10-19T21:51:17.026Z,4.86
2022-10-19T21:53:44.309Z,4.86
2022-10-19T21:56:10.938Z,4.82
2022-10-19T21:58:37.507Z,4.77
2022-10-19T22:01:05.611Z,4.71
2022-10-19T22:03:32.315Z,4.69
2022-10-19T22:05:58.941Z,4.65
2022-10-19T22:08:26.200Z,4.66
2022-10-19T22:10:53.178Z,4.62
2022-10-19T22:13:19.767Z,4.57
2022-10-19T22:15:46.429Z,4.52
2022-10-19T22:18:13.108Z,4.48
2022-10-19T22:20:41.470Z,4.42
2022-10-19T22:23:08.560Z,4.35
2022-10-19T22:25:35.791Z,4.30
2022-10-19T22:28:02.584Z,4.39
2022-10-19T22:30:29.259Z,4.32
2022-10-19T22:32:56.110Z,4.24
2022-10-19T22:35:22.702Z,4.16
2022-10-19T22:37:49.258Z,4.13
2022-10-19T22:40:15.810Z,4.07
2022-10-19T22:42:42.395Z,4.02
2022-10-19T22:45:09.249Z,3.97
2022-10-19T22:47:35.854Z,3.91
2022-10-19T22:50:02.484Z,3.87
2022-10-19T22:52:29.068Z,3.85
2022-10-19T22:54:55.674Z,3.80
2022-10-19T22:57:22.504Z,3.79
2022-10-19T22:59:49.182Z,3.83
2022-10-19T23:02:15.809Z,3.86
2022-10-19T23:04:42.382Z,3.89
2022-10-19T23:07:09.003Z,3.94
2022-10-19T23:09:35.579Z,3.97
2022-10-19T23:12:02.135Z,4.07
2022-10-19T23:14:28.812Z,4.05
2022-10-19T23:16:55.520Z,4.04
2022-10-19T23:19:22.116Z,4.04
2022-10-19T23:21:48.760Z,4.11
2022-10-19T23:24:15.323Z,3.98
2022-10-19T23:26:41.901Z,3.84
2022-10-19T23:29:08.468Z,3.74
2022-10-19T23:31:35.105Z,3.71
2022-10-19T23:34:01.705Z,3.72
2022-10-19T23:36:29.286Z,3.74
2022-10-19T23:38:57.137Z,3.67
2022-10-19T23:41:24.132Z,3.57
2022-10-19T23:43:50.781Z,3.41
2022-10-19T23:46:17.602Z,3.29
2022-10-19T23:48:44.225Z,3.24
2022-10-19T23:51:16.670Z,3.15
2022-10-19T23:53:45.325Z,3.08
2022-10-19T23:56:28.076Z,2.99
2022-10-19T23:58:55.219Z,2.94
